Istra, Russia
Current Conditions -  °F | °C
As of 11:30 PM on Thursday 18 Dec 2014 (Local Time) from UUEE Reporting Station
Broken Clouds Broken Clouds  
Wind Chill: 23°   Ceiling: 700
Heat Index: 32°   Visibility: 6mi
Dew Point: 30°   Wind: 11mph
Humidity: 93%   Direction: 200°SSW
Pressure: 29.77"   Gusts: NA
Location:  55.92°N, 36.86°E
Report Text: UUEE 182030Z 20005MPS 9999 BKN007 00/M01 Q1008 7555023625550236 NOSIG
Loading
Personal Weather Stations






























Interactive Weather Map New forecast layout! Learn more

10-Day Weather Forecast

Advertisements
Track Severe Weather on mobile